sensor_id;sensor_type;location;lat;lon;timestamp;P1;durP1;ratioP1;P2;durP2;ratioP2
68923;SDS011;55961;52.156;20.942;2024-03-06T00:02:24;69.78;;;22.15;;
68923;SDS011;55961;52.156;20.942;2024-03-06T00:04:50;71.25;;;23.55;;
68923;SDS011;55961;52.156;20.942;2024-03-06T00:07:16;71.30;;;23.17;;
68923;SDS011;55961;52.156;20.942;2024-03-06T00:09:42;69.73;;;23.33;;
68923;SDS011;55961;52.156;20.942;2024-03-06T00:12:08;69.97;;;24.17;;
68923;SDS011;55961;52.156;20.942;2024-03-06T00:14:34;70.78;;;23.85;;
68923;SDS011;55961;52.156;20.942;2024-03-06T00:17:02;62.57;;;23.33;;
68923;SDS011;55961;52.156;20.942;2024-03-06T00:19:32;65.32;;;25.10;;
68923;SDS011;55961;52.156;20.942;2024-03-06T00:21:59;61.95;;;24.00;;
68923;SDS011;55961;52.156;20.942;2024-03-06T00:24:26;75.65;;;25.48;;
68923;SDS011;55961;52.156;20.942;2024-03-06T00:26:52;63.53;;;24.83;;
68923;SDS011;55961;52.156;20.942;2024-03-06T00:29:18;74.23;;;25.10;;
68923;SDS011;55961;52.156;20.942;2024-03-06T00:31:51;73.07;;;24.25;;
68923;SDS011;55961;52.156;20.942;2024-03-06T00:34:58;71.03;;;24.73;;
68923;SDS011;55961;52.156;20.942;2024-03-06T00:37:24;65.78;;;24.88;;
68923;SDS011;55961;52.156;20.942;2024-03-06T00:39:56;77.70;;;25.27;;
68923;SDS011;55961;52.156;20.942;2024-03-06T00:42:22;69.22;;;25.80;;
68923;SDS011;55961;52.156;20.942;2024-03-06T00:44:48;71.65;;;26.35;;
68923;SDS011;55961;52.156;20.942;2024-03-06T00:47:14;74.93;;;25.43;;
68923;SDS011;55961;52.156;20.942;2024-03-06T00:49:40;78.20;;;26.33;;
68923;SDS011;55961;52.156;20.942;2024-03-06T00:52:07;69.97;;;25.60;;
68923;SDS011;55961;52.156;20.942;2024-03-06T00:54:35;68.95;;;25.55;;
68923;SDS011;55961;52.156;20.942;2024-03-06T00:57:00;68.13;;;25.88;;
68923;SDS011;55961;52.156;20.942;2024-03-06T00:59:27;68.80;;;25.47;;
68923;SDS011;55961;52.156;20.942;2024-03-06T01:01:53;69.85;;;26.65;;
68923;SDS011;55961;52.156;20.942;2024-03-06T01:04:22;70.85;;;28.15;;
68923;SDS011;55961;52.156;20.942;2024-03-06T01:06:48;80.15;;;32.25;;
68923;SDS011;55961;52.156;20.942;2024-03-06T01:09:16;80.72;;;32.55;;
68923;SDS011;55961;52.156;20.942;2024-03-06T01:11:42;77.53;;;29.90;;
68923;SDS011;55961;52.156;20.942;2024-03-06T01:14:08;72.05;;;29.08;;
68923;SDS011;55961;52.156;20.942;2024-03-06T01:16:34;74.03;;;26.27;;
68923;SDS011;55961;52.156;20.942;2024-03-06T01:19:00;69.33;;;26.40;;
68923;SDS011;55961;52.156;20.942;2024-03-06T01:21:26;68.07;;;25.40;;
68923;SDS011;55961;52.156;20.942;2024-03-06T01:23:52;69.78;;;25.90;;
68923;SDS011;55961;52.156;20.942;2024-03-06T01:26:17;72.00;;;27.00;;
68923;SDS011;55961;52.156;20.942;2024-03-06T01:28:44;70.63;;;28.83;;
68923;SDS011;55961;52.156;20.942;2024-03-06T01:31:09;73.32;;;27.45;;
68923;SDS011;55961;52.156;20.942;2024-03-06T01:33:36;67.80;;;27.90;;
68923;SDS011;55961;52.156;20.942;2024-03-06T01:36:02;69.97;;;26.50;;
68923;SDS011;55961;52.156;20.942;2024-03-06T01:38:28;67.93;;;26.77;;
68923;SDS011;55961;52.156;20.942;2024-03-06T01:40:54;63.63;;;26.92;;
68923;SDS011;55961;52.156;20.942;2024-03-06T01:43:25;63.45;;;27.80;;
68923;SDS011;55961;52.156;20.942;2024-03-06T01:45:51;67.53;;;29.13;;
68923;SDS011;55961;52.156;20.942;2024-03-06T01:48:21;68.70;;;29.20;;
68923;SDS011;55961;52.156;20.942;2024-03-06T01:50:52;64.70;;;28.08;;
68923;SDS011;55961;52.156;20.942;2024-03-06T01:53:23;60.97;;;27.95;;
68923;SDS011;55961;52.156;20.942;2024-03-06T01:55:51;60.05;;;28.83;;
68923;SDS011;55961;52.156;20.942;2024-03-06T01:58:18;65.22;;;29.70;;
68923;SDS011;55961;52.156;20.942;2024-03-06T02:00:46;59.73;;;28.40;;
68923;SDS011;55961;52.156;20.942;2024-03-06T02:03:13;58.42;;;28.10;;
68923;SDS011;55961;52.156;20.942;2024-03-06T02:05:39;63.63;;;27.15;;
68923;SDS011;55961;52.156;20.942;2024-03-06T02:08:07;58.75;;;28.00;;
68923;SDS011;55961;52.156;20.942;2024-03-06T02:10:33;51.73;;;26.03;;
68923;SDS011;55961;52.156;20.942;2024-03-06T02:12:59;50.85;;;25.38;;
68923;SDS011;55961;52.156;20.942;2024-03-06T02:15:25;53.28;;;26.58;;
68923;SDS011;55961;52.156;20.942;2024-03-06T02:17:51;50.55;;;25.15;;
68923;SDS011;55961;52.156;20.942;2024-03-06T02:20:24;46.22;;;25.38;;
68923;SDS011;55961;52.156;20.942;2024-03-06T02:22:50;46.90;;;23.23;;
68923;SDS011;55961;52.156;20.942;2024-03-06T02:25:17;49.92;;;24.63;;
68923;SDS011;55961;52.156;20.942;2024-03-06T02:27:44;44.25;;;23.80;;
68923;SDS011;55961;52.156;20.942;2024-03-06T02:30:10;45.97;;;23.90;;
68923;SDS011;55961;52.156;20.942;2024-03-06T02:32:36;46.17;;;23.90;;
68923;SDS011;55961;52.156;20.942;2024-03-06T02:35:03;45.53;;;22.83;;
68923;SDS011;55961;52.156;20.942;2024-03-06T02:37:34;44.70;;;23.17;;
68923;SDS011;55961;52.156;20.942;2024-03-06T02:39:59;44.60;;;22.13;;
68923;SDS011;55961;52.156;20.942;2024-03-06T02:42:27;42.45;;;21.75;;
68923;SDS011;55961;52.156;20.942;2024-03-06T02:44:53;43.47;;;22.10;;
68923;SDS011;55961;52.156;20.942;2024-03-06T02:47:19;46.13;;;21.85;;
68923;SDS011;55961;52.156;20.942;2024-03-06T02:49:45;38.10;;;21.17;;
68923;SDS011;55961;52.156;20.942;2024-03-06T02:52:11;44.28;;;22.63;;
68923;SDS011;55961;52.156;20.942;2024-03-06T02:54:37;42.67;;;21.80;;
68923;SDS011;55961;52.156;20.942;2024-03-06T02:57:03;41.20;;;21.25;;
68923;SDS011;55961;52.156;20.942;2024-03-06T02:59:28;38.67;;;20.25;;
68923;SDS011;55961;52.156;20.942;2024-03-06T03:01:55;42.90;;;22.00;;
68923;SDS011;55961;52.156;20.942;2024-03-06T03:04:21;41.42;;;21.30;;
68923;SDS011;55961;52.156;20.942;2024-03-06T03:06:47;38.08;;;20.00;;
68923;SDS011;55961;52.156;20.942;2024-03-06T03:09:13;37.53;;;20.73;;
68923;SDS011;55961;52.156;20.942;2024-03-06T03:11:39;37.60;;;20.40;;
68923;SDS011;55961;52.156;20.942;2024-03-06T03:14:07;35.30;;;18.67;;
68923;SDS011;55961;52.156;20.942;2024-03-06T03:16:33;39.75;;;20.15;;
68923;SDS011;55961;52.156;20.942;2024-03-06T03:19:00;40.53;;;19.23;;
68923;SDS011;55961;52.156;20.942;2024-03-06T03:21:27;35.28;;;19.63;;
68923;SDS011;55961;52.156;20.942;2024-03-06T03:23:53;38.50;;;18.63;;
68923;SDS011;55961;52.156;20.942;2024-03-06T03:26:19;35.53;;;19.15;;
68923;SDS011;55961;52.156;20.942;2024-03-06T03:28:45;38.58;;;19.42;;
68923;SDS011;55961;52.156;20.942;2024-03-06T03:31:11;36.72;;;19.10;;
68923;SDS011;55961;52.156;20.942;2024-03-06T03:33:40;38.17;;;18.93;;
68923;SDS011;55961;52.156;20.942;2024-03-06T03:36:07;39.03;;;19.95;;
68923;SDS011;55961;52.156;20.942;2024-03-06T03:38:33;37.33;;;19.98;;
68923;SDS011;55961;52.156;20.942;2024-03-06T03:41:09;35.38;;;19.13;;
68923;SDS011;55961;52.156;20.942;2024-03-06T03:43:40;35.63;;;18.90;;
68923;SDS011;55961;52.156;20.942;2024-03-06T03:46:06;33.90;;;17.92;;
68923;SDS011;55961;52.156;20.942;2024-03-06T03:48:34;36.75;;;19.80;;
68923;SDS011;55961;52.156;20.942;2024-03-06T03:51:02;35.03;;;18.08;;
68923;SDS011;55961;52.156;20.942;2024-03-06T03:53:30;38.10;;;18.65;;
68923;SDS011;55961;52.156;20.942;2024-03-06T03:55:56;35.33;;;18.60;;
68923;SDS011;55961;52.156;20.942;2024-03-06T03:58:22;36.03;;;19.27;;
68923;SDS011;55961;52.156;20.942;2024-03-06T04:00:48;37.85;;;18.52;;
68923;SDS011;55961;52.156;20.942;2024-03-06T04:03:18;32.42;;;17.65;;
68923;SDS011;55961;52.156;20.942;2024-03-06T04:05:48;35.07;;;17.97;;
68923;SDS011;55961;52.156;20.942;2024-03-06T04:08:15;39.25;;;17.83;;
68923;SDS011;55961;52.156;20.942;2024-03-06T04:10:42;35.72;;;18.50;;
68923;SDS011;55961;52.156;20.942;2024-03-06T04:13:10;34.53;;;18.13;;
68923;SDS011;55961;52.156;20.942;2024-03-06T04:15:37;35.60;;;18.17;;
68923;SDS011;55961;52.156;20.942;2024-03-06T04:18:03;32.07;;;17.00;;
68923;SDS011;55961;52.156;20.942;2024-03-06T04:20:29;39.03;;;18.13;;
68923;SDS011;55961;52.156;20.942;2024-03-06T04:22:55;35.53;;;18.60;;
68923;SDS011;55961;52.156;20.942;2024-03-06T04:25:22;34.03;;;17.50;;
68923;SDS011;55961;52.156;20.942;2024-03-06T04:27:49;37.13;;;18.27;;
68923;SDS011;55961;52.156;20.942;2024-03-06T04:30:15;37.38;;;17.70;;
68923;SDS011;55961;52.156;20.942;2024-03-06T04:32:41;35.40;;;17.25;;
68923;SDS011;55961;52.156;20.942;2024-03-06T04:35:07;36.07;;;17.03;;
68923;SDS011;55961;52.156;20.942;2024-03-06T04:37:35;34.13;;;16.27;;
68923;SDS011;55961;52.156;20.942;2024-03-06T04:40:01;35.40;;;17.98;;
68923;SDS011;55961;52.156;20.942;2024-03-06T04:42:28;32.80;;;17.42;;
68923;SDS011;55961;52.156;20.942;2024-03-06T04:44:54;31.75;;;16.98;;
68923;SDS011;55961;52.156;20.942;2024-03-06T04:47:20;29.30;;;16.80;;
68923;SDS011;55961;52.156;20.942;2024-03-06T04:49:46;29.15;;;15.25;;
68923;SDS011;55961;52.156;20.942;2024-03-06T04:52:12;33.92;;;16.83;;
68923;SDS011;55961;52.156;20.942;2024-03-06T04:54:38;34.10;;;17.00;;
68923;SDS011;55961;52.156;20.942;2024-03-06T04:57:04;29.05;;;15.25;;
68923;SDS011;55961;52.156;20.942;2024-03-06T04:59:30;32.15;;;16.80;;
68923;SDS011;55961;52.156;20.942;2024-03-06T05:01:56;32.25;;;16.27;;
68923;SDS011;55961;52.156;20.942;2024-03-06T05:04:22;34.70;;;17.83;;
68923;SDS011;55961;52.156;20.942;2024-03-06T05:06:48;33.88;;;16.85;;
68923;SDS011;55961;52.156;20.942;2024-03-06T05:09:15;32.33;;;17.30;;
68923;SDS011;55961;52.156;20.942;2024-03-06T05:11:40;31.88;;;16.42;;
68923;SDS011;55961;52.156;20.942;2024-03-06T05:14:07;31.43;;;16.17;;
68923;SDS011;55961;52.156;20.942;2024-03-06T05:16:32;28.95;;;16.02;;
68923;SDS011;55961;52.156;20.942;2024-03-06T05:18:58;32.17;;;17.13;;
68923;SDS011;55961;52.156;20.942;2024-03-06T05:21:24;34.33;;;17.93;;
68923;SDS011;55961;52.156;20.942;2024-03-06T05:23:50;31.25;;;17.15;;
68923;SDS011;55961;52.156;20.942;2024-03-06T05:26:17;30.55;;;16.20;;
68923;SDS011;55961;52.156;20.942;2024-03-06T05:28:43;32.83;;;17.92;;
68923;SDS011;55961;52.156;20.942;2024-03-06T05:31:19;31.80;;;17.03;;
68923;SDS011;55961;52.156;20.942;2024-03-06T05:33:48;32.78;;;17.88;;
68923;SDS011;55961;52.156;20.942;2024-03-06T05:36:15;33.63;;;16.58;;
68923;SDS011;55961;52.156;20.942;2024-03-06T05:38:41;27.77;;;15.70;;
68923;SDS011;55961;52.156;20.942;2024-03-06T05:41:07;33.87;;;17.53;;
68923;SDS011;55961;52.156;20.942;2024-03-06T05:43:34;34.33;;;16.88;;
68923;SDS011;55961;52.156;20.942;2024-03-06T05:46:00;32.03;;;16.80;;
68923;SDS011;55961;52.156;20.942;2024-03-06T05:48:26;35.47;;;17.67;;
68923;SDS011;55961;52.156;20.942;2024-03-06T05:50:52;35.07;;;16.77;;
68923;SDS011;55961;52.156;20.942;2024-03-06T05:53:19;28.60;;;13.93;;
68923;SDS011;55961;52.156;20.942;2024-03-06T05:55:45;34.95;;;17.08;;
68923;SDS011;55961;52.156;20.942;2024-03-06T05:58:11;35.70;;;17.02;;
68923;SDS011;55961;52.156;20.942;2024-03-06T06:00:37;34.63;;;17.63;;
68923;SDS011;55961;52.156;20.942;2024-03-06T06:03:03;30.67;;;15.85;;
68923;SDS011;55961;52.156;20.942;2024-03-06T06:05:29;32.10;;;15.85;;
68923;SDS011;55961;52.156;20.942;2024-03-06T06:07:55;35.67;;;16.65;;
68923;SDS011;55961;52.156;20.942;2024-03-06T06:10:21;34.10;;;16.50;;
68923;SDS011;55961;52.156;20.942;2024-03-06T06:12:47;35.30;;;17.23;;
68923;SDS011;55961;52.156;20.942;2024-03-06T06:15:17;33.10;;;16.02;;
68923;SDS011;55961;52.156;20.942;2024-03-06T06:17:43;32.35;;;17.00;;
68923;SDS011;55961;52.156;20.942;2024-03-06T06:20:11;34.22;;;15.45;;
68923;SDS011;55961;52.156;20.942;2024-03-06T06:22:41;36.38;;;15.65;;
68923;SDS011;55961;52.156;20.942;2024-03-06T06:25:07;36.23;;;17.37;;
68923;SDS011;55961;52.156;20.942;2024-03-06T06:27:33;30.30;;;16.08;;
68923;SDS011;55961;52.156;20.942;2024-03-06T06:29:59;31.50;;;16.73;;
68923;SDS011;55961;52.156;20.942;2024-03-06T06:32:25;32.45;;;16.10;;
68923;SDS011;55961;52.156;20.942;2024-03-06T06:34:51;32.80;;;16.43;;
68923;SDS011;55961;52.156;20.942;2024-03-06T06:37:17;31.55;;;16.08;;
68923;SDS011;55961;52.156;20.942;2024-03-06T06:39:46;31.75;;;15.63;;
68923;SDS011;55961;52.156;20.942;2024-03-06T06:42:12;29.00;;;16.05;;
68923;SDS011;55961;52.156;20.942;2024-03-06T06:44:38;31.40;;;15.93;;
68923;SDS011;55961;52.156;20.942;2024-03-06T06:47:04;29.98;;;15.05;;
68923;SDS011;55961;52.156;20.942;2024-03-06T06:49:30;27.58;;;14.70;;
68923;SDS011;55961;52.156;20.942;2024-03-06T06:51:56;31.10;;;16.02;;
68923;SDS011;55961;52.156;20.942;2024-03-06T06:54:22;28.23;;;14.67;;
68923;SDS011;55961;52.156;20.942;2024-03-06T06:56:48;27.95;;;13.85;;
68923;SDS011;55961;52.156;20.942;2024-03-06T06:59:15;29.35;;;15.02;;
68923;SDS011;55961;52.156;20.942;2024-03-06T07:01:41;29.23;;;14.50;;
68923;SDS011;55961;52.156;20.942;2024-03-06T07:04:06;32.63;;;14.43;;
68923;SDS011;55961;52.156;20.942;2024-03-06T07:06:33;24.40;;;12.48;;
68923;SDS011;55961;52.156;20.942;2024-03-06T07:08:58;27.52;;;14.25;;
68923;SDS011;55961;52.156;20.942;2024-03-06T07:11:24;25.87;;;12.80;;
68923;SDS011;55961;52.156;20.942;2024-03-06T07:13:50;28.15;;;14.05;;
68923;SDS011;55961;52.156;20.942;2024-03-06T07:16:16;24.67;;;12.85;;
68923;SDS011;55961;52.156;20.942;2024-03-06T07:18:42;27.57;;;13.93;;
68923;SDS011;55961;52.156;20.942;2024-03-06T07:21:08;26.45;;;14.23;;
68923;SDS011;55961;52.156;20.942;2024-03-06T07:23:34;33.88;;;16.77;;
68923;SDS011;55961;52.156;20.942;2024-03-06T07:26:00;33.00;;;17.23;;
68923;SDS011;55961;52.156;20.942;2024-03-06T07:28:27;24.63;;;12.53;;
68923;SDS011;55961;52.156;20.942;2024-03-06T07:30:53;26.38;;;13.05;;
68923;SDS011;55961;52.156;20.942;2024-03-06T07:33:18;23.50;;;13.10;;
68923;SDS011;55961;52.156;20.942;2024-03-06T07:35:44;25.88;;;14.35;;
68923;SDS011;55961;52.156;20.942;2024-03-06T07:38:10;28.00;;;13.93;;
68923;SDS011;55961;52.156;20.942;2024-03-06T07:40:36;25.17;;;13.85;;
68923;SDS011;55961;52.156;20.942;2024-03-06T07:43:03;28.25;;;15.00;;
68923;SDS011;55961;52.156;20.942;2024-03-06T07:45:29;25.75;;;14.63;;
68923;SDS011;55961;52.156;20.942;2024-03-06T07:47:55;29.43;;;12.33;;
68923;SDS011;55961;52.156;20.942;2024-03-06T07:50:21;26.40;;;15.70;;
68923;SDS011;55961;52.156;20.942;2024-03-06T07:52:48;25.92;;;13.43;;
68923;SDS011;55961;52.156;20.942;2024-03-06T07:55:14;28.70;;;13.48;;
68923;SDS011;55961;52.156;20.942;2024-03-06T07:57:40;25.47;;;13.37;;
68923;SDS011;55961;52.156;20.942;2024-03-06T08:00:06;28.00;;;14.32;;
68923;SDS011;55961;52.156;20.942;2024-03-06T08:02:45;24.05;;;12.15;;
68923;SDS011;55961;52.156;20.942;2024-03-06T08:05:15;24.50;;;12.23;;
68923;SDS011;55961;52.156;20.942;2024-03-06T08:07:42;24.97;;;12.70;;
68923;SDS011;55961;52.156;20.942;2024-03-06T08:10:11;25.08;;;12.25;;
68923;SDS011;55961;52.156;20.942;2024-03-06T08:12:41;26.17;;;12.32;;
68923;SDS011;55961;52.156;20.942;2024-03-06T08:15:09;24.13;;;11.45;;
68923;SDS011;55961;52.156;20.942;2024-03-06T08:17:38;28.60;;;12.70;;
68923;SDS011;55961;52.156;20.942;2024-03-06T08:20:09;24.10;;;11.20;;
68923;SDS011;55961;52.156;20.942;2024-03-06T08:22:39;24.63;;;12.57;;
68923;SDS011;55961;52.156;20.942;2024-03-06T08:25:10;26.83;;;12.93;;
68923;SDS011;55961;52.156;20.942;2024-03-06T08:27:40;23.05;;;12.43;;
68923;SDS011;55961;52.156;20.942;2024-03-06T08:30:06;24.63;;;12.10;;
68923;SDS011;55961;52.156;20.942;2024-03-06T08:32:34;24.33;;;11.17;;
68923;SDS011;55961;52.156;20.942;2024-03-06T08:35:10;24.63;;;12.00;;
68923;SDS011;55961;52.156;20.942;2024-03-06T08:37:41;22.63;;;10.45;;
68923;SDS011;55961;52.156;20.942;2024-03-06T08:40:08;26.55;;;11.73;;
68923;SDS011;55961;52.156;20.942;2024-03-06T08:42:43;26.40;;;11.20;;
68923;SDS011;55961;52.156;20.942;2024-03-06T08:45:09;29.30;;;11.60;;
68923;SDS011;55961;52.156;20.942;2024-03-06T08:47:36;24.10;;;11.63;;
68923;SDS011;55961;52.156;20.942;2024-03-06T08:50:02;27.83;;;12.48;;
68923;SDS011;55961;52.156;20.942;2024-03-06T08:52:29;25.23;;;11.90;;
68923;SDS011;55961;52.156;20.942;2024-03-06T08:54:58;28.17;;;12.75;;
68923;SDS011;55961;52.156;20.942;2024-03-06T08:57:24;28.80;;;12.07;;
68923;SDS011;55961;52.156;20.942;2024-03-06T08:59:51;28.42;;;13.73;;
68923;SDS011;55961;52.156;20.942;2024-03-06T09:02:18;27.13;;;12.43;;
68923;SDS011;55961;52.156;20.942;2024-03-06T09:04:45;26.85;;;12.25;;
68923;SDS011;55961;52.156;20.942;2024-03-06T09:07:12;29.53;;;13.63;;
68923;SDS011;55961;52.156;20.942;2024-03-06T09:09:38;25.17;;;12.70;;
68923;SDS011;55961;52.156;20.942;2024-03-06T09:12:05;28.05;;;13.00;;
68923;SDS011;55961;52.156;20.942;2024-03-06T09:14:32;26.45;;;13.23;;
68923;SDS011;55961;52.156;20.942;2024-03-06T09:16:59;25.05;;;11.90;;
68923;SDS011;55961;52.156;20.942;2024-03-06T09:19:25;28.80;;;13.20;;
68923;SDS011;55961;52.156;20.942;2024-03-06T09:21:51;27.23;;;12.68;;
68923;SDS011;55961;52.156;20.942;2024-03-06T09:24:17;26.70;;;12.52;;
68923;SDS011;55961;52.156;20.942;2024-03-06T09:26:43;28.83;;;13.68;;
68923;SDS011;55961;52.156;20.942;2024-03-06T09:29:10;30.70;;;12.83;;
68923;SDS011;55961;52.156;20.942;2024-03-06T09:31:36;29.13;;;11.77;;
68923;SDS011;55961;52.156;20.942;2024-03-06T09:34:02;25.88;;;12.15;;
68923;SDS011;55961;52.156;20.942;2024-03-06T09:36:28;30.27;;;12.38;;
68923;SDS011;55961;52.156;20.942;2024-03-06T09:38:54;29.63;;;11.60;;
68923;SDS011;55961;52.156;20.942;2024-03-06T09:41:21;25.13;;;12.20;;
68923;SDS011;55961;52.156;20.942;2024-03-06T09:43:47;25.08;;;12.43;;
68923;SDS011;55961;52.156;20.942;2024-03-06T09:46:14;23.27;;;12.68;;
68923;SDS011;55961;52.156;20.942;2024-03-06T09:48:44;26.73;;;11.67;;
68923;SDS011;55961;52.156;20.942;2024-03-06T09:51:12;21.83;;;10.98;;
68923;SDS011;55961;52.156;20.942;2024-03-06T09:53:42;23.85;;;10.63;;
68923;SDS011;55961;52.156;20.942;2024-03-06T09:56:10;24.92;;;10.40;;
68923;SDS011;55961;52.156;20.942;2024-03-06T09:58:36;23.48;;;10.90;;
68923;SDS011;55961;52.156;20.942;2024-03-06T10:01:02;25.23;;;11.17;;
68923;SDS011;55961;52.156;20.942;2024-03-06T10:03:36;28.15;;;11.00;;
68923;SDS011;55961;52.156;20.942;2024-03-06T10:06:02;23.13;;;11.27;;
68923;SDS011;55961;52.156;20.942;2024-03-06T10:08:28;24.00;;;10.73;;
68923;SDS011;55961;52.156;20.942;2024-03-06T10:10:54;21.25;;;9.65;;
68923;SDS011;55961;52.156;20.942;2024-03-06T10:13:24;23.35;;;9.90;;
68923;SDS011;55961;52.156;20.942;2024-03-06T10:15:57;21.75;;;10.32;;
68923;SDS011;55961;52.156;20.942;2024-03-06T10:18:26;20.38;;;10.63;;
68923;SDS011;55961;52.156;20.942;2024-03-06T10:20:53;22.03;;;10.90;;
68923;SDS011;55961;52.156;20.942;2024-03-06T10:23:19;19.92;;;9.15;;
68923;SDS011;55961;52.156;20.942;2024-03-06T10:25:49;24.90;;;10.00;;
68923;SDS011;55961;52.156;20.942;2024-03-06T10:28:22;19.67;;;10.45;;
68923;SDS011;55961;52.156;20.942;2024-03-06T10:30:49;23.20;;;10.55;;
68923;SDS011;55961;52.156;20.942;2024-03-06T10:33:17;20.27;;;10.70;;
68923;SDS011;55961;52.156;20.942;2024-03-06T10:35:46;22.27;;;10.27;;
68923;SDS011;55961;52.156;20.942;2024-03-06T10:38:17;25.27;;;11.18;;
68923;SDS011;55961;52.156;20.942;2024-03-06T10:40:45;24.70;;;11.93;;
68923;SDS011;55961;52.156;20.942;2024-03-06T10:43:11;26.17;;;11.38;;
68923;SDS011;55961;52.156;20.942;2024-03-06T10:48:13;25.50;;;11.43;;
68923;SDS011;55961;52.156;20.942;2024-03-06T10:50:41;24.48;;;9.73;;
68923;SDS011;55961;52.156;20.942;2024-03-06T10:53:11;26.83;;;10.63;;
68923;SDS011;55961;52.156;20.942;2024-03-06T10:55:38;25.45;;;11.48;;
68923;SDS011;55961;52.156;20.942;2024-03-06T10:58:05;24.77;;;11.30;;
68923;SDS011;55961;52.156;20.942;2024-03-06T11:00:38;26.70;;;10.95;;
68923;SDS011;55961;52.156;20.942;2024-03-06T11:03:06;26.63;;;10.38;;
68923;SDS011;55961;52.156;20.942;2024-03-06T11:05:34;25.90;;;11.40;;
68923;SDS011;55961;52.156;20.942;2024-03-06T11:08:02;24.10;;;10.90;;
68923;SDS011;55961;52.156;20.942;2024-03-06T11:10:32;24.23;;;10.70;;
68923;SDS011;55961;52.156;20.942;2024-03-06T11:12:59;25.52;;;9.27;;
68923;SDS011;55961;52.156;20.942;2024-03-06T11:15:27;30.10;;;11.07;;
68923;SDS011;55961;52.156;20.942;2024-03-06T11:17:53;21.52;;;9.98;;
68923;SDS011;55961;52.156;20.942;2024-03-06T11:20:21;21.73;;;9.85;;
68923;SDS011;55961;52.156;20.942;2024-03-06T11:31:07;22.40;;;10.52;;
68923;SDS011;55961;52.156;20.942;2024-03-06T11:33:46;21.00;;;9.43;;
68923;SDS011;55961;52.156;20.942;2024-03-06T11:39:04;20.50;;;8.48;;
68923;SDS011;55961;52.156;20.942;2024-03-06T11:44:15;19.33;;;9.10;;
68923;SDS011;55961;52.156;20.942;2024-03-06T11:46:42;17.63;;;8.80;;
68923;SDS011;55961;52.156;20.942;2024-03-06T11:51:44;16.83;;;7.88;;
68923;SDS011;55961;52.156;20.942;2024-03-06T11:54:10;19.02;;;8.48;;
68923;SDS011;55961;52.156;20.942;2024-03-06T11:56:38;17.38;;;7.70;;
68923;SDS011;55961;52.156;20.942;2024-03-06T11:59:05;16.13;;;8.40;;
68923;SDS011;55961;52.156;20.942;2024-03-06T12:01:35;17.83;;;8.60;;
68923;SDS011;55961;52.156;20.942;2024-03-06T12:04:02;17.75;;;7.72;;
68923;SDS011;55961;52.156;20.942;2024-03-06T12:06:32;15.40;;;7.13;;
68923;SDS011;55961;52.156;20.942;2024-03-06T12:08:59;20.50;;;8.80;;
68923;SDS011;55961;52.156;20.942;2024-03-06T12:11:25;20.65;;;8.05;;
68923;SDS011;55961;52.156;20.942;2024-03-06T12:13:53;17.47;;;7.80;;
68923;SDS011;55961;52.156;20.942;2024-03-06T12:16:20;15.95;;;6.90;;
68923;SDS011;55961;52.156;20.942;2024-03-06T12:18:52;17.95;;;8.55;;
68923;SDS011;55961;52.156;20.942;2024-03-06T12:21:27;15.60;;;7.15;;
68923;SDS011;55961;52.156;20.942;2024-03-06T12:24:06;14.55;;;6.97;;
68923;SDS011;55961;52.156;20.942;2024-03-06T12:26:33;14.67;;;6.83;;
68923;SDS011;55961;52.156;20.942;2024-03-06T12:29:09;16.05;;;8.18;;
68923;SDS011;55961;52.156;20.942;2024-03-06T12:31:38;15.05;;;6.47;;
68923;SDS011;55961;52.156;20.942;2024-03-06T12:34:07;16.58;;;7.22;;
68923;SDS011;55961;52.156;20.942;2024-03-06T12:36:34;13.80;;;7.30;;
68923;SDS011;55961;52.156;20.942;2024-03-06T12:39:02;16.53;;;7.00;;
68923;SDS011;55961;52.156;20.942;2024-03-06T12:41:28;14.02;;;7.10;;
68923;SDS011;55961;52.156;20.942;2024-03-06T12:43:55;15.65;;;6.28;;
68923;SDS011;55961;52.156;20.942;2024-03-06T12:46:23;13.50;;;6.32;;
68923;SDS011;55961;52.156;20.942;2024-03-06T12:48:49;12.45;;;6.32;;
68923;SDS011;55961;52.156;20.942;2024-03-06T12:51:16;13.50;;;6.37;;
68923;SDS011;55961;52.156;20.942;2024-03-06T12:53:42;13.63;;;5.60;;
68923;SDS011;55961;52.156;20.942;2024-03-06T12:56:08;15.70;;;6.13;;
68923;SDS011;55961;52.156;20.942;2024-03-06T12:58:35;12.48;;;4.85;;
68923;SDS011;55961;52.156;20.942;2024-03-06T13:01:01;11.37;;;5.10;;
68923;SDS011;55961;52.156;20.942;2024-03-06T13:03:27;11.75;;;4.97;;
68923;SDS011;55961;52.156;20.942;2024-03-06T13:05:53;9.70;;;5.00;;
68923;SDS011;55961;52.156;20.942;2024-03-06T13:08:19;10.93;;;4.15;;
68923;SDS011;55961;52.156;20.942;2024-03-06T13:10:45;12.13;;;5.93;;
68923;SDS011;55961;52.156;20.942;2024-03-06T13:13:12;12.10;;;5.40;;
68923;SDS011;55961;52.156;20.942;2024-03-06T13:15:38;9.00;;;4.03;;
68923;SDS011;55961;52.156;20.942;2024-03-06T13:18:04;10.48;;;4.80;;
68923;SDS011;55961;52.156;20.942;2024-03-06T13:20:30;9.88;;;4.97;;
68923;SDS011;55961;52.156;20.942;2024-03-06T13:22:56;11.67;;;4.60;;
68923;SDS011;55961;52.156;20.942;2024-03-06T13:25:22;9.52;;;4.50;;
68923;SDS011;55961;52.156;20.942;2024-03-06T13:27:48;11.75;;;4.78;;
68923;SDS011;55961;52.156;20.942;2024-03-06T13:30:16;17.20;;;5.30;;
68923;SDS011;55961;52.156;20.942;2024-03-06T13:32:42;11.53;;;5.40;;
68923;SDS011;55961;52.156;20.942;2024-03-06T13:35:08;9.77;;;4.78;;
68923;SDS011;55961;52.156;20.942;2024-03-06T13:37:39;13.73;;;5.15;;
68923;SDS011;55961;52.156;20.942;2024-03-06T13:40:06;11.10;;;5.35;;
68923;SDS011;55961;52.156;20.942;2024-03-06T13:42:34;12.23;;;5.80;;
68923;SDS011;55961;52.156;20.942;2024-03-06T13:45:01;10.35;;;5.18;;
68923;SDS011;55961;52.156;20.942;2024-03-06T13:47:27;17.73;;;5.25;;
68923;SDS011;55961;52.156;20.942;2024-03-06T13:49:53;12.88;;;5.07;;
68923;SDS011;55961;52.156;20.942;2024-03-06T13:52:20;13.47;;;5.50;;
68923;SDS011;55961;52.156;20.942;2024-03-06T13:54:48;12.80;;;6.35;;
68923;SDS011;55961;52.156;20.942;2024-03-06T13:57:15;13.10;;;5.63;;
68923;SDS011;55961;52.156;20.942;2024-03-06T13:59:41;14.25;;;6.50;;
68923;SDS011;55961;52.156;20.942;2024-03-06T14:02:07;13.35;;;5.90;;
68923;SDS011;55961;52.156;20.942;2024-03-06T14:04:33;14.63;;;5.77;;
68923;SDS011;55961;52.156;20.942;2024-03-06T14:06:59;12.20;;;5.10;;
68923;SDS011;55961;52.156;20.942;2024-03-06T14:09:26;11.57;;;5.40;;
68923;SDS011;55961;52.156;20.942;2024-03-06T14:11:52;13.05;;;5.32;;
68923;SDS011;55961;52.156;20.942;2024-03-06T14:14:19;12.15;;;5.88;;
68923;SDS011;55961;52.156;20.942;2024-03-06T14:16:45;14.47;;;5.80;;
68923;SDS011;55961;52.156;20.942;2024-03-06T14:19:12;12.50;;;6.15;;
68923;SDS011;55961;52.156;20.942;2024-03-06T14:21:38;14.90;;;5.47;;
68923;SDS011;55961;52.156;20.942;2024-03-06T14:24:04;18.65;;;6.20;;
68923;SDS011;55961;52.156;20.942;2024-03-06T14:26:31;11.93;;;5.70;;
68923;SDS011;55961;52.156;20.942;2024-03-06T14:29:01;10.70;;;5.30;;
68923;SDS011;55961;52.156;20.942;2024-03-06T14:31:28;12.65;;;5.93;;